Estación de Los Colihues
Ultimos registro cada 15 minutos 57
| N° | Estación | Fecha / Hora | Temperatura | Humedad | Lluvia | Velocidad | Dirección | Radiación | Presion |
| 57 | Los Colihues | 10-05-2026 14:00 | 19,1 | 49,7 | 0 | 2 | 185 | 474,4 | 1005,1 |
| 56 | Los Colihues | 10-05-2026 13:45 | 18,7 | 49,2 | 0 | 1,5 | 197 | 489,4 | 1005,4 |
| 55 | Los Colihues | 10-05-2026 13:30 | 18,5 | 51,4 | 0 | 1,5 | 187 | 501,9 | 1005,2 |
| 54 | Los Colihues | 10-05-2026 13:15 | 18,1 | 50,4 | 0 | 1,5 | 192 | 511,9 | 1005,5 |
| 53 | Los Colihues | 10-05-2026 13:00 | 17,5 | 51,2 | 0 | 1,5 | 198 | 516,9 | 1005,7 |
| 52 | Los Colihues | 10-05-2026 12:45 | 17,5 | 52,2 | 0 | 1,5 | 197 | 518,1 | 1006 |
| 51 | Los Colihues | 10-05-2026 12:30 | 16,7 | 52,3 | 0 | 1,5 | 198 | 519,4 | 1006 |
| 50 | Los Colihues | 10-05-2026 12:15 | 16,2 | 52,2 | 0 | 1,5 | 199 | 516,9 | 1006 |
| 49 | Los Colihues | 10-05-2026 12:00 | 15,6 | 52,6 | 0 | 1,5 | 204 | 510,6 | 1006 |
| 48 | Los Colihues | 10-05-2026 11:45 | 15,8 | 52,4 | 0 | 1,5 | 195 | 498,1 | 1006,2 |
| 47 | Los Colihues | 10-05-2026 11:30 | 15 | 54,6 | 0 | 2 | 198 | 485,6 | 1006,3 |
| 46 | Los Colihues | 10-05-2026 11:15 | 14,3 | 56,5 | 0 | 1,5 | 201 | 468,1 | 1006,2 |
| 45 | Los Colihues | 10-05-2026 11:00 | 14,1 | 55,6 | 0 | 1,5 | 199 | 448,1 | 1006,4 |
| 44 | Los Colihues | 10-05-2026 10:45 | 13,7 | 56,9 | 0 | 2 | 209 | 423,1 | 1006,3 |
| 43 | Los Colihues | 10-05-2026 10:30 | 13,6 | 57,3 | 0 | 1,5 | 198 | 399,4 | 1006,5 |
| 42 | Los Colihues | 10-05-2026 10:15 | 12,9 | 56,9 | 0 | 2 | 202 | 370,6 | 1006,8 |
| 41 | Los Colihues | 10-05-2026 10:00 | 12,3 | 59,2 | 0 | 1,5 | 199 | 338,1 | 1006,8 |
| 40 | Los Colihues | 10-05-2026 09:45 | 12 | 60,1 | 0 | 1,5 | 199 | 304,4 | 1007,1 |
| 39 | Los Colihues | 10-05-2026 09:30 | 11,5 | 63,1 | 0 | 1,5 | 199 | 126,9 | 1007 |
| 38 | Los Colihues | 10-05-2026 09:15 | 10,8 | 63,7 | 0 | 2 | 201 | 233,1 | 1007,1 |
| 37 | Los Colihues | 10-05-2026 09:00 | 10,3 | 64,9 | 0 | 1,5 | 192 | 196,9 | 1007 |
| 36 | Los Colihues | 10-05-2026 08:45 | 9,9 | 66,4 | 0 | 1 | 195 | 159,4 | 1006,8 |
| 35 | Los Colihues | 10-05-2026 08:30 | 9,3 | 68 | 0 | 1 | 194 | 121,9 | 1007,1 |
| 34 | Los Colihues | 10-05-2026 08:15 | 8,6 | 70,3 | 0 | 0 | 184 | 78,1 | 1007,2 |
| 33 | Los Colihues | 10-05-2026 08:00 | 7,6 | 75 | 0 | 0 | 225 | 34,4 | 1007,4 |
| 32 | Los Colihues | 10-05-2026 07:45 | 7 | 76,2 | 0 | 0 | 178 | 8,1 | 1007,7 |
| 31 | Los Colihues | 10-05-2026 07:30 | 7,1 | 76,3 | 0 | 0 | 195 | 1,9 | 1007,6 |
| 30 | Los Colihues | 10-05-2026 07:15 | 7,1 | 75,6 | 0 | 0 | 192 | 0,6 | 1007,7 |
| 29 | Los Colihues | 10-05-2026 07:00 | 7,9 | 73,2 | 0 | 1 | 184 | 0,6 | 1007,5 |
| 28 | Los Colihues | 10-05-2026 06:45 | 7,5 | 74,7 | 0 | 0,5 | 195 | 0,6 | 1007,6 |
| 27 | Los Colihues | 10-05-2026 06:30 | 7,4 | 74,8 | 0 | 0,5 | 190 | 0,6 | 1007,4 |
| 26 | Los Colihues | 10-05-2026 06:15 | 7,5 | 74,4 | 0 | 0,5 | 195 | 0,6 | 1007,4 |
| 25 | Los Colihues | 10-05-2026 06:00 | 7,8 | 73,2 | 0 | 0,5 | 188 | 0,6 | 1007,5 |
| 24 | Los Colihues | 10-05-2026 05:45 | 7,6 | 74,5 | 0 | 0,5 | 187 | 0,6 | 1007,5 |
| 23 | Los Colihues | 10-05-2026 05:30 | 7,6 | 74,2 | 0 | 0 | 219 | 0,6 | 1007,3 |
| 22 | Los Colihues | 10-05-2026 05:15 | 7,3 | 75,1 | 0 | 0 | 222 | 0,6 | 1007,2 |
| 21 | Los Colihues | 10-05-2026 05:00 | 6,9 | 76,8 | 0 | 0 | 197 | 0,6 | 1007,3 |
| 20 | Los Colihues | 10-05-2026 04:45 | 7,6 | 73,8 | 0 | 0,5 | 195 | 0,6 | 1007,4 |
| 19 | Los Colihues | 10-05-2026 04:30 | 7,6 | 74,3 | 0 | 0,5 | 211 | 0,6 | 1007,4 |
| 18 | Los Colihues | 10-05-2026 04:15 | 8 | 73 | 0 | 1 | 195 | 0,6 | 1007,4 |
| 17 | Los Colihues | 10-05-2026 04:00 | 8 | 73 | 0 | 1 | 194 | 0,6 | 1007,6 |
| 16 | Los Colihues | 10-05-2026 03:45 | 8,1 | 72,9 | 0 | 1 | 199 | 0,6 | 1007,5 |
| 15 | Los Colihues | 10-05-2026 03:30 | 8 | 73,4 | 0 | 1 | 202 | 0,6 | 1007,6 |
| 14 | Los Colihues | 10-05-2026 03:15 | 8,3 | 72,7 | 0 | 1,5 | 197 | 0,6 | 1007,7 |
| 13 | Los Colihues | 10-05-2026 03:00 | 8,2 | 73,3 | 0 | 1,5 | 199 | 0,6 | 1007,9 |
| 12 | Los Colihues | 10-05-2026 02:45 | 8,2 | 73,8 | 0 | 1 | 191 | 0,6 | 1008 |
| 11 | Los Colihues | 10-05-2026 02:30 | 7,6 | 76,3 | 0 | 0 | 209 | 0,6 | 1008,1 |
| 10 | Los Colihues | 10-05-2026 02:15 | 6,4 | 80,7 | 0 | 0 | 246 | 0,6 | 1008,3 |
| 9 | Los Colihues | 10-05-2026 02:00 | 7,2 | 78,1 | 0 | 0 | 184 | 0,6 | 1008,5 |
| 8 | Los Colihues | 10-05-2026 01:45 | 6,9 | 80,3 | 0 | 0 | 220 | 0,6 | 1008,7 |
| 7 | Los Colihues | 10-05-2026 01:30 | 3,1 | 95,9 | 0 | 0 | 246 | 0,6 | 1008,7 |
| 6 | Los Colihues | 10-05-2026 01:15 | 3 | 91,4 | 0 | 0 | 246 | 0,6 | 1008,9 |
| 5 | Los Colihues | 10-05-2026 01:00 | 4,1 | 89,3 | 0 | 0 | 247 | 0,6 | 1009,1 |
| 4 | Los Colihues | 10-05-2026 00:45 | 5,2 | 85,1 | 0 | 0 | 246 | 0,6 | 1009,2 |
| 3 | Los Colihues | 10-05-2026 00:30 | 5,4 | 86,1 | 0 | 0 | 246 | 0,6 | 1009,4 |
| 2 | Los Colihues | 10-05-2026 00:15 | 6,5 | 79,2 | 0 | 0 | 246 | 0,6 | 1009,5 |
| 1 | Los Colihues | 10-05-2026 00:00 | 7,1 | 78,9 | 0 | 0 | 240 | 0,6 | 1009,6 |